Archival Weather

Republic

Farmingdale, New York (KFRG)

Report from: Tuesday, January 30, 2024 11:51 AM EST
Current time: Friday, June 21, 2024 5:09 AM EDT

Current weather – Weather history – Daily summaries
Weather forecast

Temperature2.0°C (35.6°F)
Wind chill-0.7°C (30.7°F)
Dew point-4.0°C (24.8°F)
Winds 5 kts (2.6 m/s, 5.8 mph) East-Southeast (110°)
Visibility10 mi. (16.1 km)
Clouds Ceiling: Overcast 2,900 ft. (884 m)
Altimeter30.22 in.Hg (1023 mB)
Relative humidity64 %
Density altitude-1,853 ft. (-565 m)
Remarks Automated weather observing station without precipitation discriminator
Flight conditions Marginal Visual Meteorological Conditions
Raw dataKFRG 301651Z 11005KT 10SM OVC029 02/M04 A3022 RMK AO1
An error has occurred. This application may no longer respond until reloaded. Reload 🗙